sensor_id;sensor_type;location;lat;lon;timestamp;pressure;altitude;pressure_sealevel;temperature;humidity
49915;BME280;35806;47.958;13.158;2023-12-20T00:01:24;94729.51;;;1.88;50.26
49915;BME280;35806;47.958;13.158;2023-12-20T00:03:51;94718.21;;;3.08;45.30
49915;BME280;35806;47.958;13.158;2023-12-20T00:06:19;94720.95;;;2.07;46.03
49915;BME280;35806;47.958;13.158;2023-12-20T00:08:48;94716.54;;;2.51;45.95
49915;BME280;35806;47.958;13.158;2023-12-20T00:11:15;94720.07;;;2.06;47.24
49915;BME280;35806;47.958;13.158;2023-12-20T00:13:46;94714.05;;;3.43;45.01
49915;BME280;35806;47.958;13.158;2023-12-20T00:16:13;94714.79;;;3.52;44.33
49915;BME280;35806;47.958;13.158;2023-12-20T00:18:40;94712.05;;;1.94;46.61
49915;BME280;35806;47.958;13.158;2023-12-20T00:21:07;94706.61;;;2.40;45.74
49915;BME280;35806;47.958;13.158;2023-12-20T00:23:35;94700.72;;;3.13;43.02
49915;BME280;35806;47.958;13.158;2023-12-20T00:26:02;94691.07;;;3.27;43.23
49915;BME280;35806;47.958;13.158;2023-12-20T00:28:30;94685.65;;;4.06;41.72
49915;BME280;35806;47.958;13.158;2023-12-20T00:30:57;94680.66;;;4.08;41.93
49915;BME280;35806;47.958;13.158;2023-12-20T00:33:24;94680.58;;;3.37;41.66
49915;BME280;35806;47.958;13.158;2023-12-20T00:35:51;94666.57;;;3.32;41.72
49915;BME280;35806;47.958;13.158;2023-12-20T00:38:18;94667.27;;;3.10;42.04
49915;BME280;35806;47.958;13.158;2023-12-20T00:40:46;94661.04;;;3.73;41.06
49915;BME280;35806;47.958;13.158;2023-12-20T00:43:13;94660.29;;;4.10;40.45
49915;BME280;35806;47.958;13.158;2023-12-20T00:45:41;94656.62;;;3.96;40.99
49915;BME280;35806;47.958;13.158;2023-12-20T00:48:09;94648.69;;;4.48;40.28
49915;BME280;35806;47.958;13.158;2023-12-20T00:50:36;94647.62;;;4.46;39.89
49915;BME280;35806;47.958;13.158;2023-12-20T00:53:04;94645.21;;;4.62;39.63
49915;BME280;35806;47.958;13.158;2023-12-20T00:55:32;94645.44;;;4.71;40.12
49915;BME280;35806;47.958;13.158;2023-12-20T00:57:59;94641.41;;;4.15;40.68
49915;BME280;35806;47.958;13.158;2023-12-20T01:00:27;94640.95;;;4.37;40.44
49915;BME280;35806;47.958;13.158;2023-12-20T01:02:55;94635.66;;;3.99;40.77
49915;BME280;35806;47.958;13.158;2023-12-20T01:05:23;94633.38;;;3.69;42.12
49915;BME280;35806;47.958;13.158;2023-12-20T01:07:51;94623.53;;;3.83;41.81
49915;BME280;35806;47.958;13.158;2023-12-20T01:10:18;94619.13;;;3.64;42.38
49915;BME280;35806;47.958;13.158;2023-12-20T01:12:45;94611.55;;;3.81;42.42
49915;BME280;35806;47.958;13.158;2023-12-20T01:15:13;94606.67;;;3.84;42.30
49915;BME280;35806;47.958;13.158;2023-12-20T01:17:40;94605.71;;;3.69;42.30
49915;BME280;35806;47.958;13.158;2023-12-20T01:20:08;94597.57;;;3.90;42.53
49915;BME280;35806;47.958;13.158;2023-12-20T01:22:36;94602.31;;;3.26;43.60
49915;BME280;35806;47.958;13.158;2023-12-20T01:25:04;94600.28;;;3.45;43.57
49915;BME280;35806;47.958;13.158;2023-12-20T01:27:31;94602.49;;;3.10;43.46
49915;BME280;35806;47.958;13.158;2023-12-20T01:29:58;94599.39;;;2.94;43.73
49915;BME280;35806;47.958;13.158;2023-12-20T01:32:30;94593.97;;;2.86;43.85
49915;BME280;35806;47.958;13.158;2023-12-20T01:35:02;94594.16;;;2.82;44.41
49915;BME280;35806;47.958;13.158;2023-12-20T01:37:30;94586.08;;;2.74;43.94
49915;BME280;35806;47.958;13.158;2023-12-20T01:39:58;94586.94;;;3.23;44.08
49915;BME280;35806;47.958;13.158;2023-12-20T01:42:25;94591.05;;;2.50;44.28
49915;BME280;35806;47.958;13.158;2023-12-20T01:44:53;94581.87;;;2.57;45.17
49915;BME280;35806;47.958;13.158;2023-12-20T01:47:21;94571.82;;;2.99;44.84
49915;BME280;35806;47.958;13.158;2023-12-20T01:49:49;94563.49;;;3.32;44.45
49915;BME280;35806;47.958;13.158;2023-12-20T01:52:16;94557.87;;;3.06;44.84
49915;BME280;35806;47.958;13.158;2023-12-20T01:54:44;94552.96;;;3.38;44.49
49915;BME280;35806;47.958;13.158;2023-12-20T01:57:11;94543.21;;;3.45;44.24
49915;BME280;35806;47.958;13.158;2023-12-20T01:59:39;94540.17;;;3.54;43.62
49915;BME280;35806;47.958;13.158;2023-12-20T02:02:08;94538.30;;;2.96;44.22
49915;BME280;35806;47.958;13.158;2023-12-20T02:04:35;94532.87;;;2.96;44.50
49915;BME280;35806;47.958;13.158;2023-12-20T02:07:03;94533.20;;;3.05;44.36
49915;BME280;35806;47.958;13.158;2023-12-20T02:09:32;94531.93;;;2.65;45.71
49915;BME280;35806;47.958;13.158;2023-12-20T02:12:05;94524.29;;;1.95;46.60
49915;BME280;35806;47.958;13.158;2023-12-20T02:14:33;94512.23;;;2.45;45.68
49915;BME280;35806;47.958;13.158;2023-12-20T02:17:01;94504.07;;;2.29;45.90
49915;BME280;35806;47.958;13.158;2023-12-20T02:19:28;94506.14;;;1.69;46.98
49915;BME280;35806;47.958;13.158;2023-12-20T02:22:06;94504.23;;;1.43;47.57
49915;BME280;35806;47.958;13.158;2023-12-20T02:24:33;94500.51;;;2.32;46.76
49915;BME280;35806;47.958;13.158;2023-12-20T02:27:02;94498.55;;;2.33;46.91
49915;BME280;35806;47.958;13.158;2023-12-20T02:29:30;94493.52;;;2.19;47.06
49915;BME280;35806;47.958;13.158;2023-12-20T02:31:57;94492.50;;;2.07;47.35
49915;BME280;35806;47.958;13.158;2023-12-20T02:34:24;94491.69;;;1.38;48.37
49915;BME280;35806;47.958;13.158;2023-12-20T02:36:52;94490.10;;;1.55;48.51
49915;BME280;35806;47.958;13.158;2023-12-20T02:39:20;94485.52;;;1.68;48.37
49915;BME280;35806;47.958;13.158;2023-12-20T02:41:48;94481.95;;;1.59;48.94
49915;BME280;35806;47.958;13.158;2023-12-20T02:44:16;94478.67;;;1.64;48.63
49915;BME280;35806;47.958;13.158;2023-12-20T02:46:42;94479.52;;;2.07;47.52
49915;BME280;35806;47.958;13.158;2023-12-20T02:49:09;94480.66;;;2.69;47.09
49915;BME280;35806;47.958;13.158;2023-12-20T02:51:37;94482.79;;;2.90;46.16
49915;BME280;35806;47.958;13.158;2023-12-20T02:54:05;94488.21;;;2.72;46.39
49915;BME280;35806;47.958;13.158;2023-12-20T02:56:32;94484.28;;;3.18;46.11
49915;BME280;35806;47.958;13.158;2023-12-20T02:59:00;94480.80;;;3.04;45.99
49915;BME280;35806;47.958;13.158;2023-12-20T03:01:28;94481.10;;;3.07;45.96
49915;BME280;35806;47.958;13.158;2023-12-20T03:03:56;94480.75;;;3.37;46.00
49915;BME280;35806;47.958;13.158;2023-12-20T03:06:23;94471.05;;;3.05;45.74
49915;BME280;35806;47.958;13.158;2023-12-20T03:08:52;94468.49;;;3.58;45.94
49915;BME280;35806;47.958;13.158;2023-12-20T03:11:19;94469.39;;;3.09;45.82
49915;BME280;35806;47.958;13.158;2023-12-20T03:13:46;94471.88;;;3.29;45.37
49915;BME280;35806;47.958;13.158;2023-12-20T03:16:14;94466.47;;;3.73;45.20
49915;BME280;35806;47.958;13.158;2023-12-20T03:18:41;94466.13;;;3.48;44.69
49915;BME280;35806;47.958;13.158;2023-12-20T03:21:08;94459.29;;;3.13;45.20
49915;BME280;35806;47.958;13.158;2023-12-20T03:23:36;94463.75;;;2.94;46.02
49915;BME280;35806;47.958;13.158;2023-12-20T03:26:07;94458.68;;;3.44;45.54
49915;BME280;35806;47.958;13.158;2023-12-20T03:28:34;94456.51;;;3.70;44.72
49915;BME280;35806;47.958;13.158;2023-12-20T03:31:02;94457.45;;;3.44;45.44
49915;BME280;35806;47.958;13.158;2023-12-20T03:33:30;94458.57;;;3.26;45.20
49915;BME280;35806;47.958;13.158;2023-12-20T03:35:57;94456.17;;;4.15;43.68
49915;BME280;35806;47.958;13.158;2023-12-20T03:38:24;94453.56;;;4.07;44.55
49915;BME280;35806;47.958;13.158;2023-12-20T03:40:52;94444.02;;;4.04;44.44
49915;BME280;35806;47.958;13.158;2023-12-20T03:43:20;94454.86;;;4.32;43.65
49915;BME280;35806;47.958;13.158;2023-12-20T03:45:47;94450.71;;;3.86;44.30
49915;BME280;35806;47.958;13.158;2023-12-20T03:48:15;94452.72;;;3.25;45.29
49915;BME280;35806;47.958;13.158;2023-12-20T03:50:42;94448.22;;;3.42;45.99
49915;BME280;35806;47.958;13.158;2023-12-20T03:53:09;94451.01;;;3.56;45.66
49915;BME280;35806;47.958;13.158;2023-12-20T03:55:36;94452.84;;;3.23;45.93
49915;BME280;35806;47.958;13.158;2023-12-20T03:58:04;94448.17;;;3.19;46.11
49915;BME280;35806;47.958;13.158;2023-12-20T04:00:32;94438.54;;;3.57;45.05
49915;BME280;35806;47.958;13.158;2023-12-20T04:02:59;94429.68;;;3.40;44.77
49915;BME280;35806;47.958;13.158;2023-12-20T04:05:26;94434.69;;;3.19;45.18
49915;BME280;35806;47.958;13.158;2023-12-20T04:07:54;94442.64;;;3.48;45.15
49915;BME280;35806;47.958;13.158;2023-12-20T04:10:21;94445.49;;;3.74;45.31
49915;BME280;35806;47.958;13.158;2023-12-20T04:12:49;94449.94;;;3.54;45.54
49915;BME280;35806;47.958;13.158;2023-12-20T04:15:16;94454.33;;;3.23;44.42
49915;BME280;35806;47.958;13.158;2023-12-20T04:17:43;94459.15;;;3.43;44.53
49915;BME280;35806;47.958;13.158;2023-12-20T04:20:11;94454.17;;;3.78;44.29
49915;BME280;35806;47.958;13.158;2023-12-20T04:22:38;94456.50;;;3.81;43.39
49915;BME280;35806;47.958;13.158;2023-12-20T04:25:06;94457.72;;;3.65;44.15
49915;BME280;35806;47.958;13.158;2023-12-20T04:27:33;94453.47;;;4.44;42.98
49915;BME280;35806;47.958;13.158;2023-12-20T04:30:01;94452.90;;;4.21;43.01
49915;BME280;35806;47.958;13.158;2023-12-20T04:32:29;94451.48;;;4.08;43.14
49915;BME280;35806;47.958;13.158;2023-12-20T04:34:57;94458.50;;;4.25;43.72
49915;BME280;35806;47.958;13.158;2023-12-20T04:37:24;94460.98;;;4.06;43.98
49915;BME280;35806;47.958;13.158;2023-12-20T04:39:52;94469.42;;;3.81;44.55
49915;BME280;35806;47.958;13.158;2023-12-20T04:42:19;94475.90;;;3.85;44.33
49915;BME280;35806;47.958;13.158;2023-12-20T04:44:47;94474.58;;;3.87;45.37
49915;BME280;35806;47.958;13.158;2023-12-20T04:47:15;94478.26;;;4.16;43.83
49915;BME280;35806;47.958;13.158;2023-12-20T04:49:42;94483.13;;;4.53;43.98
49915;BME280;35806;47.958;13.158;2023-12-20T04:52:10;94481.12;;;4.13;44.35
49915;BME280;35806;47.958;13.158;2023-12-20T04:54:38;94488.19;;;4.18;44.20
49915;BME280;35806;47.958;13.158;2023-12-20T04:57:05;94487.52;;;4.64;43.98
49915;BME280;35806;47.958;13.158;2023-12-20T04:59:33;94487.47;;;4.25;44.57
49915;BME280;35806;47.958;13.158;2023-12-20T05:02:01;94492.24;;;4.76;44.24
49915;BME280;35806;47.958;13.158;2023-12-20T05:04:28;94489.70;;;4.60;44.94
49915;BME280;35806;47.958;13.158;2023-12-20T05:07:01;94498.59;;;4.65;46.19
49915;BME280;35806;47.958;13.158;2023-12-20T05:09:29;94506.32;;;4.03;47.31
49915;BME280;35806;47.958;13.158;2023-12-20T05:11:57;94510.52;;;4.34;46.90
49915;BME280;35806;47.958;13.158;2023-12-20T05:14:25;94512.14;;;3.64;48.55
49915;BME280;35806;47.958;13.158;2023-12-20T05:16:52;94517.80;;;4.01;47.58
49915;BME280;35806;47.958;13.158;2023-12-20T05:19:20;94528.99;;;4.21;47.68
49915;BME280;35806;47.958;13.158;2023-12-20T05:21:48;94524.15;;;2.99;50.60
49915;BME280;35806;47.958;13.158;2023-12-20T05:24:20;94531.64;;;3.83;50.37
49915;BME280;35806;47.958;13.158;2023-12-20T05:26:48;94529.48;;;3.24;51.12
49915;BME280;35806;47.958;13.158;2023-12-20T05:29:21;94535.86;;;3.23;52.17
49915;BME280;35806;47.958;13.158;2023-12-20T05:31:49;94535.43;;;3.17;51.76
49915;BME280;35806;47.958;13.158;2023-12-20T05:34:17;94522.88;;;3.28;52.30
49915;BME280;35806;47.958;13.158;2023-12-20T05:36:45;94526.12;;;3.73;52.17
49915;BME280;35806;47.958;13.158;2023-12-20T05:39:13;94526.74;;;4.00;51.00
49915;BME280;35806;47.958;13.158;2023-12-20T05:41:40;94531.93;;;3.36;53.48
49915;BME280;35806;47.958;13.158;2023-12-20T05:44:08;94529.72;;;3.70;52.97
49915;BME280;35806;47.958;13.158;2023-12-20T05:46:43;94534.68;;;3.97;52.67
49915;BME280;35806;47.958;13.158;2023-12-20T05:49:11;94532.39;;;3.96;54.00
49915;BME280;35806;47.958;13.158;2023-12-20T05:51:39;94534.40;;;4.08;52.50
49915;BME280;35806;47.958;13.158;2023-12-20T05:54:06;94542.03;;;3.78;53.57
49915;BME280;35806;47.958;13.158;2023-12-20T05:56:34;94541.08;;;3.86;52.67
49915;BME280;35806;47.958;13.158;2023-12-20T05:59:01;94545.50;;;4.08;51.88
49915;BME280;35806;47.958;13.158;2023-12-20T06:01:29;94550.80;;;3.77;52.99
49915;BME280;35806;47.958;13.158;2023-12-20T06:03:57;94558.07;;;3.83;53.80
49915;BME280;35806;47.958;13.158;2023-12-20T06:06:24;94557.43;;;3.96;53.03
49915;BME280;35806;47.958;13.158;2023-12-20T06:08:52;94553.64;;;4.18;52.55
49915;BME280;35806;47.958;13.158;2023-12-20T06:11:19;94559.00;;;4.23;52.65
49915;BME280;35806;47.958;13.158;2023-12-20T06:13:47;94561.00;;;4.15;52.64
49915;BME280;35806;47.958;13.158;2023-12-20T06:16:15;94561.51;;;4.33;52.62
49915;BME280;35806;47.958;13.158;2023-12-20T06:18:43;94564.37;;;4.53;52.64
49915;BME280;35806;47.958;13.158;2023-12-20T06:21:10;94555.67;;;3.23;56.21
49915;BME280;35806;47.958;13.158;2023-12-20T06:23:38;94562.10;;;4.29;54.39
49915;BME280;35806;47.958;13.158;2023-12-20T06:26:05;94570.42;;;4.38;54.75
49915;BME280;35806;47.958;13.158;2023-12-20T06:28:33;94566.81;;;4.49;54.70
49915;BME280;35806;47.958;13.158;2023-12-20T06:31:01;94575.56;;;4.61;55.30
49915;BME280;35806;47.958;13.158;2023-12-20T06:33:28;94573.85;;;4.49;54.95
49915;BME280;35806;47.958;13.158;2023-12-20T06:35:57;94579.75;;;4.67;55.68
49915;BME280;35806;47.958;13.158;2023-12-20T06:38:24;94581.86;;;4.89;55.09
49915;BME280;35806;47.958;13.158;2023-12-20T06:40:51;94578.08;;;4.80;55.84
49915;BME280;35806;47.958;13.158;2023-12-20T06:43:19;94585.80;;;4.90;56.94
49915;BME280;35806;47.958;13.158;2023-12-20T06:45:47;94588.98;;;4.04;57.83
49915;BME280;35806;47.958;13.158;2023-12-20T06:48:19;94593.53;;;4.69;57.47
49915;BME280;35806;47.958;13.158;2023-12-20T06:50:46;94596.84;;;4.30;59.90
49915;BME280;35806;47.958;13.158;2023-12-20T06:53:14;94602.27;;;4.45;59.91
49915;BME280;35806;47.958;13.158;2023-12-20T06:55:42;94604.86;;;3.70;61.30
49915;BME280;35806;47.958;13.158;2023-12-20T06:58:09;94603.25;;;4.19;61.23
49915;BME280;35806;47.958;13.158;2023-12-20T07:00:37;94603.09;;;4.14;61.27
49915;BME280;35806;47.958;13.158;2023-12-20T07:03:04;94607.63;;;3.91;62.30
49915;BME280;35806;47.958;13.158;2023-12-20T07:05:31;94611.34;;;3.81;62.95
49915;BME280;35806;47.958;13.158;2023-12-20T07:07:59;94621.67;;;3.61;64.01
49915;BME280;35806;47.958;13.158;2023-12-20T07:10:26;94629.94;;;3.30;65.17
49915;BME280;35806;47.958;13.158;2023-12-20T07:12:55;94626.74;;;2.70;67.71
49915;BME280;35806;47.958;13.158;2023-12-20T07:15:22;94631.77;;;3.41;67.61
49915;BME280;35806;47.958;13.158;2023-12-20T07:17:50;94635.37;;;3.65;66.65
49915;BME280;35806;47.958;13.158;2023-12-20T07:20:17;94636.99;;;2.58;68.80
49915;BME280;35806;47.958;13.158;2023-12-20T07:22:45;94643.18;;;3.05;68.57
49915;BME280;35806;47.958;13.158;2023-12-20T07:25:12;94647.07;;;2.75;69.78
49915;BME280;35806;47.958;13.158;2023-12-20T07:27:40;94648.57;;;2.25;71.84
49915;BME280;35806;47.958;13.158;2023-12-20T07:30:09;94648.65;;;3.00;70.70
49915;BME280;35806;47.958;13.158;2023-12-20T07:32:36;94660.04;;;2.55;71.81
49915;BME280;35806;47.958;13.158;2023-12-20T07:35:04;94666.26;;;2.52;72.26
49915;BME280;35806;47.958;13.158;2023-12-20T07:37:32;94665.41;;;3.04;71.73
49915;BME280;35806;47.958;13.158;2023-12-20T07:39:59;94670.74;;;3.16;71.18
49915;BME280;35806;47.958;13.158;2023-12-20T07:42:27;94673.36;;;3.05;71.08
49915;BME280;35806;47.958;13.158;2023-12-20T07:44:55;94690.19;;;2.20;73.22
49915;BME280;35806;47.958;13.158;2023-12-20T07:47:22;94695.18;;;1.82;76.78
49915;BME280;35806;47.958;13.158;2023-12-20T07:49:49;94690.65;;;0.89;78.37
49915;BME280;35806;47.958;13.158;2023-12-20T07:52:17;94691.98;;;0.44;82.42
49915;BME280;35806;47.958;13.158;2023-12-20T07:54:50;94692.93;;;0.89;80.04
49915;BME280;35806;47.958;13.158;2023-12-20T07:57:17;94701.99;;;2.02;76.68
49915;BME280;35806;47.958;13.158;2023-12-20T07:59:44;94691.95;;;0.99;79.87
49915;BME280;35806;47.958;13.158;2023-12-20T08:02:12;94697.44;;;1.60;76.82
49915;BME280;35806;47.958;13.158;2023-12-20T08:04:41;94699.99;;;1.24;77.20
49915;BME280;35806;47.958;13.158;2023-12-20T08:07:08;94695.25;;;0.91;78.69
49915;BME280;35806;47.958;13.158;2023-12-20T08:09:36;94691.72;;;1.80;75.72
49915;BME280;35806;47.958;13.158;2023-12-20T08:12:04;94689.61;;;1.87;74.86
49915;BME280;35806;47.958;13.158;2023-12-20T08:14:33;94690.64;;;2.62;72.85
49915;BME280;35806;47.958;13.158;2023-12-20T08:17:01;94689.25;;;2.76;72.61
49915;BME280;35806;47.958;13.158;2023-12-20T08:19:28;94689.47;;;1.82;76.40
49915;BME280;35806;47.958;13.158;2023-12-20T08:22:03;94697.84;;;1.75;76.79
49915;BME280;35806;47.958;13.158;2023-12-20T08:24:31;94701.05;;;2.51;74.78
49915;BME280;35806;47.958;13.158;2023-12-20T08:27:00;94706.24;;;2.47;74.58
49915;BME280;35806;47.958;13.158;2023-12-20T08:29:29;94708.20;;;2.62;73.76
49915;BME280;35806;47.958;13.158;2023-12-20T08:31:58;94702.99;;;1.97;75.21
49915;BME280;35806;47.958;13.158;2023-12-20T08:34:26;94715.85;;;2.00;76.43
49915;BME280;35806;47.958;13.158;2023-12-20T08:36:53;94715.95;;;2.41;74.95
49915;BME280;35806;47.958;13.158;2023-12-20T08:39:21;94713.88;;;2.45;74.22
49915;BME280;35806;47.958;13.158;2023-12-20T08:41:48;94723.91;;;2.94;72.76
49915;BME280;35806;47.958;13.158;2023-12-20T08:44:16;94727.09;;;2.16;74.96
49915;BME280;35806;47.958;13.158;2023-12-20T08:46:44;94733.62;;;1.70;75.75
49915;BME280;35806;47.958;13.158;2023-12-20T08:49:12;94736.97;;;2.07;76.18
49915;BME280;35806;47.958;13.158;2023-12-20T08:51:39;94733.51;;;1.70;77.55
49915;BME280;35806;47.958;13.158;2023-12-20T08:54:07;94733.74;;;1.67;78.58
49915;BME280;35806;47.958;13.158;2023-12-20T08:56:35;94736.57;;;1.89;76.78
49915;BME280;35806;47.958;13.158;2023-12-20T08:59:02;94740.59;;;1.80;76.55
49915;BME280;35806;47.958;13.158;2023-12-20T09:01:30;94736.58;;;2.00;76.39
49915;BME280;35806;47.958;13.158;2023-12-20T09:03:57;94736.72;;;1.99;76.15
49915;BME280;35806;47.958;13.158;2023-12-20T09:06:31;94737.90;;;1.84;75.68
49915;BME280;35806;47.958;13.158;2023-12-20T09:08:58;94746.30;;;1.72;75.25
49915;BME280;35806;47.958;13.158;2023-12-20T09:11:26;94740.42;;;2.31;74.43
49915;BME280;35806;47.958;13.158;2023-12-20T09:13:53;94742.39;;;2.48;74.59
49915;BME280;35806;47.958;13.158;2023-12-20T09:16:21;94737.05;;;2.37;73.97
49915;BME280;35806;47.958;13.158;2023-12-20T09:18:49;94737.89;;;2.11;73.86
49915;BME280;35806;47.958;13.158;2023-12-20T09:21:17;94734.68;;;1.52;76.45
49915;BME280;35806;47.958;13.158;2023-12-20T09:23:44;94739.58;;;1.67;75.76
49915;BME280;35806;47.958;13.158;2023-12-20T09:26:12;94744.09;;;2.08;75.61
49915;BME280;35806;47.958;13.158;2023-12-20T09:28:39;94742.31;;;1.88;75.33
49915;BME280;35806;47.958;13.158;2023-12-20T09:31:07;94741.57;;;2.42;75.18
49915;BME280;35806;47.958;13.158;2023-12-20T09:33:35;94744.38;;;1.77;76.96
49915;BME280;35806;47.958;13.158;2023-12-20T09:36:08;94742.20;;;2.61;73.54
49915;BME280;35806;47.958;13.158;2023-12-20T09:38:35;94741.17;;;1.33;77.10
49915;BME280;35806;47.958;13.158;2023-12-20T09:41:03;94738.97;;;1.70;77.13
49915;BME280;35806;47.958;13.158;2023-12-20T09:43:31;94738.18;;;2.12;76.13
49915;BME280;35806;47.958;13.158;2023-12-20T09:46:05;94735.64;;;1.76;76.05
49915;BME280;35806;47.958;13.158;2023-12-20T09:48:33;94728.38;;;2.46;73.78
49915;BME280;35806;47.958;13.158;2023-12-20T09:51:01;94721.70;;;2.16;74.66
49915;BME280;35806;47.958;13.158;2023-12-20T09:53:29;94718.57;;;2.70;73.55
49915;BME280;35806;47.958;13.158;2023-12-20T09:55:59;94719.37;;;1.92;75.77
49915;BME280;35806;47.958;13.158;2023-12-20T09:58:26;94714.95;;;2.21;75.21
49915;BME280;35806;47.958;13.158;2023-12-20T10:00:55;94711.22;;;1.59;77.60
49915;BME280;35806;47.958;13.158;2023-12-20T10:03:25;94700.71;;;2.09;76.14
49915;BME280;35806;47.958;13.158;2023-12-20T10:05:54;94699.38;;;2.48;75.37
49915;BME280;35806;47.958;13.158;2023-12-20T10:08:24;94698.01;;;2.20;75.86
49915;BME280;35806;47.958;13.158;2023-12-20T10:10:52;94696.68;;;1.82;77.07
49915;BME280;35806;47.958;13.158;2023-12-20T10:13:19;94697.84;;;2.16;75.88
49915;BME280;35806;47.958;13.158;2023-12-20T10:15:47;94696.93;;;2.01;76.13
49915;BME280;35806;47.958;13.158;2023-12-20T10:18:16;94696.57;;;2.22;75.58
49915;BME280;35806;47.958;13.158;2023-12-20T10:20:45;94693.69;;;1.61;77.62
49915;BME280;35806;47.958;13.158;2023-12-20T10:23:12;94690.66;;;1.79;77.23
49915;BME280;35806;47.958;13.158;2023-12-20T10:25:40;94684.94;;;2.35;75.86
49915;BME280;35806;47.958;13.158;2023-12-20T10:28:10;94685.86;;;1.87;76.70
49915;BME280;35806;47.958;13.158;2023-12-20T10:30:38;94692.91;;;1.16;77.84
49915;BME280;35806;47.958;13.158;2023-12-20T10:33:11;94693.46;;;1.69;77.00
49915;BME280;35806;47.958;13.158;2023-12-20T10:35:39;94686.49;;;2.33;74.83
49915;BME280;35806;47.958;13.158;2023-12-20T10:38:07;94683.11;;;2.55;74.92
49915;BME280;35806;47.958;13.158;2023-12-20T10:40:35;94675.45;;;2.07;75.30
49915;BME280;35806;47.958;13.158;2023-12-20T10:43:04;94672.82;;;1.90;75.85
49915;BME280;35806;47.958;13.158;2023-12-20T10:45:32;94672.82;;;1.78;76.24
49915;BME280;35806;47.958;13.158;2023-12-20T10:48:00;94669.82;;;2.04;75.97
49915;BME280;35806;47.958;13.158;2023-12-20T10:50:28;94668.59;;;2.37;75.14
49915;BME280;35806;47.958;13.158;2023-12-20T10:52:57;94668.21;;;1.80;76.67
49915;BME280;35806;47.958;13.158;2023-12-20T10:55:25;94665.93;;;1.83;76.33
49915;BME280;35806;47.958;13.158;2023-12-20T10:57:57;94659.08;;;1.57;76.41
49915;BME280;35806;47.958;13.158;2023-12-20T11:00:28;94660.12;;;0.69;80.53
49915;BME280;35806;47.958;13.158;2023-12-20T11:03:00;94655.36;;;2.10;76.57
49915;BME280;35806;47.958;13.158;2023-12-20T11:05:31;94658.40;;;1.44;77.53
49915;BME280;35806;47.958;13.158;2023-12-20T11:08:12;94659.09;;;1.39;78.39
49915;BME280;35806;47.958;13.158;2023-12-20T11:10:49;94651.82;;;1.67;77.79
49915;BME280;35806;47.958;13.158;2023-12-20T11:13:23;94649.61;;;1.68;76.69
49915;BME280;35806;47.958;13.158;2023-12-20T11:15:54;94651.73;;;1.37;77.44
49915;BME280;35806;47.958;13.158;2023-12-20T11:18:28;94649.16;;;2.09;76.12
49915;BME280;35806;47.958;13.158;2023-12-20T11:20:56;94648.34;;;1.75;77.16
49915;BME280;35806;47.958;13.158;2023-12-20T11:23:27;94647.71;;;1.80;77.00
49915;BME280;35806;47.958;13.158;2023-12-20T11:25:57;94650.67;;;1.83;76.54
49915;BME280;35806;47.958;13.158;2023-12-20T11:28:26;94650.07;;;1.60;77.26
49915;BME280;35806;47.958;13.158;2023-12-20T11:30:55;94645.59;;;1.24;78.35
49915;BME280;35806;47.958;13.158;2023-12-20T11:33:23;94636.30;;;1.79;76.09
49915;BME280;35806;47.958;13.158;2023-12-20T11:35:51;94632.88;;;1.53;77.07
49915;BME280;35806;47.958;13.158;2023-12-20T11:38:20;94630.36;;;1.78;76.08
49915;BME280;35806;47.958;13.158;2023-12-20T11:40:49;94629.01;;;2.64;74.00
49915;BME280;35806;47.958;13.158;2023-12-20T11:43:30;94630.18;;;1.52;77.27
49915;BME280;35806;47.958;13.158;2023-12-20T11:46:03;94631.26;;;1.42;77.21
49915;BME280;35806;47.958;13.158;2023-12-20T11:48:31;94626.84;;;1.49;78.61
49915;BME280;35806;47.958;13.158;2023-12-20T11:50:59;94629.54;;;2.03;76.48
49915;BME280;35806;47.958;13.158;2023-12-20T11:53:26;94629.88;;;1.77;76.89
49915;BME280;35806;47.958;13.158;2023-12-20T11:55:54;94628.52;;;1.86;76.50
49915;BME280;35806;47.958;13.158;2023-12-20T11:58:21;94629.58;;;2.11;76.63
49915;BME280;35806;47.958;13.158;2023-12-20T12:00:50;94624.40;;;1.72;78.11
49915;BME280;35806;47.958;13.158;2023-12-20T12:03:18;94627.36;;;1.80;77.78
49915;BME280;35806;47.958;13.158;2023-12-20T12:05:47;94624.37;;;2.16;76.69
49915;BME280;35806;47.958;13.158;2023-12-20T12:08:15;94624.97;;;1.08;78.25
49915;BME280;35806;47.958;13.158;2023-12-20T12:10:43;94619.37;;;2.29;75.84
49915;BME280;35806;47.958;13.158;2023-12-20T12:13:10;94619.75;;;2.02;76.50
49915;BME280;35806;47.958;13.158;2023-12-20T12:15:38;94621.08;;;2.92;75.05
49915;BME280;35806;47.958;13.158;2023-12-20T12:18:06;94627.51;;;2.01;75.80
49915;BME280;35806;47.958;13.158;2023-12-20T12:20:34;94623.32;;;1.46;79.00
49915;BME280;35806;47.958;13.158;2023-12-20T12:23:03;94615.70;;;1.56;78.98
49915;BME280;35806;47.958;13.158;2023-12-20T12:25:31;94617.54;;;2.88;75.32
49915;BME280;35806;47.958;13.158;2023-12-20T12:27:59;94621.60;;;1.70;78.81
49915;BME280;35806;47.958;13.158;2023-12-20T12:30:26;94621.40;;;2.48;75.81
49915;BME280;35806;47.958;13.158;2023-12-20T12:32:55;94623.20;;;1.55;79.26
49915;BME280;35806;47.958;13.158;2023-12-20T12:35:23;94618.72;;;2.39;77.29
49915;BME280;35806;47.958;13.158;2023-12-20T12:37:51;94613.09;;;2.26;77.52
49915;BME280;35806;47.958;13.158;2023-12-20T12:40:19;94610.06;;;2.37;76.29
49915;BME280;35806;47.958;13.158;2023-12-20T12:42:46;94606.44;;;2.74;75.11
49915;BME280;35806;47.958;13.158;2023-12-20T12:45:19;94603.50;;;2.29;75.13
49915;BME280;35806;47.958;13.158;2023-12-20T12:47:47;94600.76;;;1.70;78.00
49915;BME280;35806;47.958;13.158;2023-12-20T12:50:15;94598.81;;;1.65;79.20
49915;BME280;35806;47.958;13.158;2023-12-20T12:53:16;94594.97;;;1.82;78.15
49915;BME280;35806;47.958;13.158;2023-12-20T12:55:45;94595.87;;;1.90;76.75
49915;BME280;35806;47.958;13.158;2023-12-20T12:58:13;94594.48;;;1.44;78.06
49915;BME280;35806;47.958;13.158;2023-12-20T13:00:43;94597.40;;;1.47;78.73
49915;BME280;35806;47.958;13.158;2023-12-20T13:03:27;94592.89;;;1.47;78.57
49915;BME280;35806;47.958;13.158;2023-12-20T13:05:54;94587.39;;;2.49;75.71